Ogallah, KS

6:28 AM CDT on July 04, 2015 (GMT -0500)
Fairgrounds | | Change Station
CLOSE
Current Station
Personal Weather Station
Location: Hays, KS
Elevation: 2083 ft
Nearby Weather Stations

Elev 2083 ft 38.91 °N, 99.37 °W | Updated 3 minutes ago

Partly Cloudy
Partly Cloudy
65.1 °F
Feels Like 65.1 °F
N
2.0
Wind Variable Wind from East
Gusts 4.0 mph

Today
High -- | Low -- °F
--% Chance of Precip.
Yesterday
High -- | Low -- °F
Precip. -- in
6:18 AM 9:07 PM
Waning Gibbous, 93% visible
Pressure 30.01 in
Visibility 7.0 miles
Clouds Scattered Clouds 5000 ft
Mostly Cloudy 6500 ft
Mostly Cloudy 8000 ft
Dew Point 62 °F
Humidity 91%
Rainfall 0.00 in
Snow Depth Not available.
UV 0 out of 12
Pollen 5.20 out of 12
Air Quality Not available.
Flu Activity Not available.
METAR KHYS 041115Z 15003KT 7SM SCT050 BKN065 BKN080 17/13 A3001 RMK AO1

More Conditions Fewer Conditions

Pressure 30.01 in
Visibility 7.0 miles
Clouds Scattered Clouds 5000 ft
Mostly Cloudy 6500 ft
Mostly Cloudy 8000 ft
Dew Point 62 °F
Humidity 91%
Rainfall 0.00 in
Snow Depth Not available.
UV 0 out of 12
Pollen 5.20 out of 12
Air Quality Not available.
Flu Activity Not available.
METAR KHYS 041115Z 15003KT 7SM SCT050 BKN065 BKN080 17/13 A3001 RMK AO1

More Conditions Fewer Conditions

10-Day Weather Forecast

×

Almanac

Astronomy

Jul. 04, 2015 Rise Set
Actual Time
Civil Twilight
Nautical Twilight
Astronomical Twilight
Moon
Length of Visible Light
Length of Day
Tomorrow will be .
, % of the Moon is Illuminated

Today's Extremes

State Highs State Lows

Community

WunderPhotos

Upload Photos

1,834,939 photos uploaded!

WunderBlogs® & News

Nearby

Air Quality

  Air Quality AQ Index Pollutant
Not available.

Snow Depth

Station Depth Elevation

Earthquake Activity

City Distance Mag. Time & Date
Minimum magnitude displayed is 2.5.

Coastal Water Temperatures

Place Temperature

Stations

Nearby Weather Stations

Station Location Temp. Windchill Dew Point Humidity Wind Precip. Elev Updated Type